Time;durP1;ratioP1;P1;durP2;ratioP2;P2;SDS_P1;SDS_P2;PMS_P1;PMS_P2;Temp;Humidity;BMP_temperature;BMP_pressure;BME280_temperature;BME280_humidity;BME280_pressure;Samples;Min_cycle;Max_cycle;Signal;HPM_P1;HPM_P2
2022/06/26 00:00:43;;;;;;;13.30;12.00;;;17.80;99.90;;;;;;5076568;28;20115;-83
2022/06/26 00:03:09;;;;;;;11.63;10.43;;;17.70;99.90;;;;;;5072931;28;20078;-83
2022/06/26 00:05:35;;;;;;;13.48;12.07;;;17.70;99.90;;;;;;5070258;28;20128;-83
2022/06/26 00:08:02;;;;;;;14.15;11.85;;;17.60;99.90;;;;;;5073949;28;20048;-83
2022/06/26 00:10:28;;;;;;;14.13;11.23;;;17.60;99.90;;;;;;5063528;28;20135;-83
2022/06/26 00:12:53;;;;;;;14.40;11.18;;;17.60;99.90;;;;;;5089303;28;20071;-83
2022/06/26 00:15:19;;;;;;;13.18;10.70;;;17.60;99.90;;;;;;5071586;28;20088;-83
2022/06/26 00:17:44;;;;;;;11.55;10.38;;;17.60;99.90;;;;;;5076315;28;20043;-83
2022/06/26 00:20:11;;;;;;;13.02;11.60;;;17.60;99.90;;;;;;5057989;28;20082;-84
2022/06/26 00:22:36;;;;;;;15.73;11.60;;;17.60;99.90;;;;;;5056096;28;20051;-83
2022/06/26 00:25:03;;;;;;;14.15;12.65;;;17.60;99.90;;;;;;5059972;28;20040;-84
2022/06/26 00:27:28;;;;;;;14.23;12.63;;;17.60;99.90;;;;;;5094856;28;20047;-83
2022/06/26 00:29:54;;;;;;;16.95;13.38;;;17.50;99.90;;;;;;5073950;28;20127;-83
2022/06/26 00:32:19;;;;;;;15.02;13.50;;;17.50;99.90;;;;;;5073598;28;20045;-83
2022/06/26 00:34:45;;;;;;;16.58;14.98;;;17.50;99.90;;;;;;5058201;28;20068;-84
2022/06/26 00:37:11;;;;;;;15.38;13.82;;;17.40;99.90;;;;;;5081375;28;20047;-85
2022/06/26 00:39:37;;;;;;;15.75;14.18;;;17.40;99.90;;;;;;5059569;28;20063;-85
2022/06/26 00:42:02;;;;;;;17.90;16.10;;;17.40;99.90;;;;;;5056093;28;20558;-85
2022/06/26 00:44:29;;;;;;;15.15;13.65;;;17.40;99.90;;;;;;5063306;28;20070;-85
2022/06/26 00:46:55;;;;;;;23.25;14.32;;;17.40;99.90;;;;;;5059604;28;20112;-84
2022/06/26 00:49:20;;;;;;;13.95;12.45;;;17.40;99.90;;;;;;5075455;28;20494;-84
2022/06/26 00:51:54;;;;;;;16.08;14.35;;;17.40;99.90;;;;;;5046587;28;20044;-84
2022/06/26 00:54:23;;;;;;;14.43;12.95;;;17.40;99.90;;;;;;5056329;28;20044;-84
2022/06/26 00:56:48;;;;;;;14.20;12.80;;;17.30;99.90;;;;;;5070170;28;20085;-84
2022/06/26 00:59:15;;;;;;;15.90;14.20;;;17.30;99.90;;;;;;5082552;28;20035;-84
2022/06/26 01:01:40;;;;;;;15.55;14.05;;;17.30;99.90;;;;;;5046325;28;20498;-84
2022/06/26 01:04:06;;;;;;;17.52;15.55;;;17.30;99.90;;;;;;5082954;28;20036;-85
2022/06/26 01:06:34;;;;;;;18.70;13.98;;;17.30;99.90;;;;;;5066499;28;20040;-85
2022/06/26 01:09:00;;;;;;;16.55;14.77;;;17.30;99.90;;;;;;5100520;28;20130;-84
2022/06/26 01:11:26;;;;;;;19.83;14.85;;;17.30;99.90;;;;;;5069003;28;20037;-84
2022/06/26 01:13:55;;;;;;;15.68;14.20;;;17.30;99.90;;;;;;5039843;28;20124;-85
2022/06/26 01:16:23;;;;;;;15.93;14.32;;;17.30;99.90;;;;;;5052276;28;20032;-85
2022/06/26 01:18:54;;;;;;;15.55;13.50;;;17.40;99.90;;;;;;5092446;28;20089;-84
2022/06/26 01:21:22;;;;;;;17.05;14.57;;;17.40;99.90;;;;;;5109021;28;20350;-85
2022/06/26 01:23:49;;;;;;;17.60;15.80;;;17.30;99.90;;;;;;5073633;28;20039;-85
2022/06/26 01:26:15;;;;;;;21.42;17.80;;;17.30;99.90;;;;;;5061761;28;20040;-84
2022/06/26 01:28:41;;;;;;;19.05;16.98;;;17.30;99.90;;;;;;5062934;28;20040;-85
2022/06/26 01:31:07;;;;;;;20.17;18.17;;;17.30;99.90;;;;;;5069001;28;20043;-85
2022/06/26 01:33:33;;;;;;;18.13;15.95;;;17.30;99.90;;;;;;5065163;28;20456;-85
2022/06/26 01:35:59;;;;;;;18.92;16.83;;;17.30;99.90;;;;;;5066644;28;20052;-84
2022/06/26 01:38:24;;;;;;;19.73;17.65;;;17.30;99.90;;;;;;5053320;28;20403;-85
2022/06/26 01:40:52;;;;;;;16.70;14.90;;;17.30;99.90;;;;;;5076286;28;20047;-85
2022/06/26 01:43:21;;;;;;;22.50;20.23;;;17.20;99.90;;;;;;5076011;28;20059;-85
2022/06/26 01:45:48;;;;;;;24.85;22.30;;;17.30;99.90;;;;;;5061871;28;20042;-84
2022/06/26 01:48:15;;;;;;;22.63;19.33;;;17.20;99.90;;;;;;5104133;28;20344;-84
2022/06/26 01:50:41;;;;;;;25.48;22.83;;;17.20;99.90;;;;;;5075426;28;20093;-83
2022/06/26 01:53:06;;;;;;;23.65;21.05;;;17.20;99.90;;;;;;5078710;28;20040;-85
2022/06/26 01:55:33;;;;;;;25.48;22.70;;;17.30;99.90;;;;;;5077255;28;20506;-84
2022/06/26 01:58:02;;;;;;;26.60;20.80;;;17.40;99.90;;;;;;5077402;28;20036;-84
2022/06/26 02:00:33;;;;;;;21.77;18.95;;;17.40;99.90;;;;;;5095612;28;20040;-85
2022/06/26 02:02:59;;;;;;;20.13;18.02;;;17.50;99.90;;;;;;5095164;28;20071;-85
2022/06/26 02:05:25;;;;;;;22.65;19.23;;;17.70;99.90;;;;;;5095485;28;20062;-84
2022/06/26 02:07:51;;;;;;;21.23;18.58;;;17.70;99.90;;;;;;5059545;28;20489;-85
2022/06/26 02:15:48;;;;;;;17.70;15.32;;;18.00;99.90;;;;;;5072111;28;20049;-84
2022/06/26 02:18:13;;;;;;;17.17;15.13;;;18.00;99.90;;;;;;5080272;28;20418;-85
2022/06/26 02:20:39;;;;;;;14.80;13.18;;;18.10;99.90;;;;;;5069564;28;20173;-86
2022/06/26 02:23:06;;;;;;;19.63;17.55;;;18.10;99.90;;;;;;5061440;28;20066;-85
2022/06/26 02:25:31;;;;;;;18.13;13.75;;;18.20;99.90;;;;;;5071006;28;20540;-85
2022/06/26 02:27:57;;;;;;;15.52;14.02;;;18.20;99.90;;;;;;5057997;28;20044;-85
2022/06/26 02:30:22;;;;;;;15.52;13.80;;;18.30;99.90;;;;;;5057745;28;20032;-82
2022/06/26 02:32:48;;;;;;;15.95;14.25;;;18.30;99.90;;;;;;5043880;28;20041;-79
2022/06/26 02:35:14;;;;;;;18.00;13.55;;;18.30;99.90;;;;;;5084660;28;20097;-79
2022/06/26 02:37:39;;;;;;;16.90;14.68;;;18.30;99.90;;;;;;5082511;28;20076;-80
2022/06/26 02:40:06;;;;;;;14.02;12.45;;;18.30;99.90;;;;;;5070061;28;20044;-79
2022/06/26 02:42:32;;;;;;;16.48;13.27;;;18.30;99.90;;;;;;5079883;28;20169;-81
2022/06/26 02:44:57;;;;;;;19.40;15.40;;;18.20;99.90;;;;;;5078245;28;20086;-80
2022/06/26 02:47:23;;;;;;;15.88;14.27;;;18.20;99.90;;;;;;5087579;28;20047;-81
2022/06/26 02:49:48;;;;;;;20.00;16.58;;;18.20;99.90;;;;;;5098096;28;20040;-80
2022/06/26 02:52:14;;;;;;;18.52;15.63;;;18.20;99.90;;;;;;5091304;28;20040;-82
2022/06/26 02:54:39;;;;;;;19.75;16.02;;;18.10;99.90;;;;;;5078185;28;20040;-83
2022/06/26 02:57:05;;;;;;;16.73;14.93;;;18.10;99.90;;;;;;5077497;28;20072;-83
2022/06/26 02:59:31;;;;;;;19.15;17.30;;;18.00;99.90;;;;;;5077635;28;20119;-82
2022/06/26 03:01:57;;;;;;;16.77;15.10;;;18.00;99.90;;;;;;5061754;28;20043;-82
2022/06/26 03:04:23;;;;;;;20.85;17.63;;;17.90;99.90;;;;;;5078863;28;20058;-85
2022/06/26 03:06:49;;;;;;;19.90;17.60;;;17.90;99.90;;;;;;5068183;28;20046;-82
2022/06/26 03:09:15;;;;;;;16.70;14.55;;;17.80;99.90;;;;;;5078809;28;20044;-82
2022/06/26 03:11:41;;;;;;;15.88;14.27;;;17.80;99.90;;;;;;5095804;28;20044;-82
2022/06/26 03:14:10;;;;;;;17.15;15.45;;;17.80;99.90;;;;;;5064107;28;20417;-83
2022/06/26 03:16:36;;;;;;;17.25;15.45;;;17.90;99.90;;;;;;5059190;28;20395;-81
2022/06/26 03:19:02;;;;;;;16.52;14.43;;;17.80;99.90;;;;;;5077337;28;20037;-81
2022/06/26 03:21:29;;;;;;;15.57;13.35;;;17.80;99.90;;;;;;5061924;28;20155;-84
2022/06/26 03:24:01;;;;;;;14.00;11.88;;;17.80;99.90;;;;;;5077577;28;20044;-81
2022/06/26 03:26:32;;;;;;;13.25;11.85;;;17.80;99.90;;;;;;5058960;28;20143;-81
2022/06/26 03:28:59;;;;;;;15.60;13.60;;;17.80;99.90;;;;;;5088842;28;20033;-82
2022/06/26 03:31:25;;;;;;;15.55;13.98;;;17.70;99.90;;;;;;5064484;28;20055;-81
2022/06/26 03:33:50;;;;;;;13.63;11.63;;;17.70;99.90;;;;;;5061608;28;20036;-81
2022/06/26 03:36:17;;;;;;;14.27;12.15;;;17.60;99.90;;;;;;5070483;28;20055;-84
2022/06/26 03:38:43;;;;;;;12.15;10.82;;;17.60;99.90;;;;;;5077203;28;20039;-83
2022/06/26 03:41:11;;;;;;;10.68;8.07;;;17.70;99.90;;;;;;5095231;28;20036;-83
2022/06/26 03:43:37;;;;;;;12.05;10.23;;;17.60;99.90;;;;;;5095828;28;20117;-84
2022/06/26 03:46:03;;;;;;;13.98;9.38;;;17.60;99.90;;;;;;5092651;28;20437;-84
2022/06/26 03:48:29;;;;;;;8.90;8.00;;;17.60;99.90;;;;;;5060786;28;20047;-83
2022/06/26 03:50:55;;;;;;;7.97;7.18;;;17.50;99.90;;;;;;5058986;28;20048;-84
2022/06/26 03:53:21;;;;;;;8.20;7.07;;;17.50;99.90;;;;;;5058948;28;20380;-83
2022/06/26 03:55:47;;;;;;;8.77;6.20;;;17.50;99.90;;;;;;5060463;28;20109;-82
2022/06/26 03:58:12;;;;;;;7.63;6.50;;;17.50;99.90;;;;;;5086559;28;20496;-83
2022/06/26 04:00:38;;;;;;;7.65;6.53;;;17.50;99.90;;;;;;5076258;28;20050;-85
2022/06/26 04:03:07;;;;;;;7.68;6.88;;;17.50;99.90;;;;;;5078317;28;20040;-84
2022/06/26 04:05:34;;;;;;;5.32;4.82;;;17.50;99.90;;;;;;5060131;28;20123;-83
2022/06/26 04:08:00;;;;;;;6.88;5.05;;;17.50;99.90;;;;;;5082395;28;20036;-84
2022/06/26 04:10:27;;;;;;;6.22;4.32;;;17.50;99.90;;;;;;5077215;28;20036;-83
2022/06/26 04:12:53;;;;;;;9.13;4.97;;;17.40;99.90;;;;;;5076252;28;20517;-84
2022/06/26 04:15:18;;;;;;;4.10;3.70;;;17.40;99.90;;;;;;5073205;28;20077;-82
2022/06/26 04:17:44;;;;;;;7.47;4.63;;;17.40;99.90;;;;;;5074076;28;20184;-81
2022/06/26 04:20:10;;;;;;;5.25;3.28;;;17.40;99.90;;;;;;5062321;28;20044;-80
2022/06/26 04:22:36;;;;;;;6.53;3.63;;;17.40;99.90;;;;;;5059207;28;20039;-81
2022/06/26 04:25:03;;;;;;;3.67;2.55;;;17.40;99.90;;;;;;5081396;28;20040;-81
2022/06/26 04:27:29;;;;;;;5.38;3.35;;;17.40;99.90;;;;;;5076956;28;20032;-81
2022/06/26 04:29:55;;;;;;;5.97;2.17;;;17.40;99.90;;;;;;5081211;28;20048;-81
2022/06/26 04:32:20;;;;;;;3.58;3.00;;;17.40;99.90;;;;;;5079703;28;20043;-81
2022/06/26 04:34:46;;;;;;;3.05;2.28;;;17.40;99.90;;;;;;5078796;28;20044;-81
2022/06/26 04:37:11;;;;;;;3.33;2.40;;;17.40;99.90;;;;;;5082904;28;20502;-82
2022/06/26 04:39:37;;;;;;;3.15;2.85;;;17.40;99.90;;;;;;5079971;28;20635;-81
2022/06/26 04:42:03;;;;;;;3.58;2.80;;;17.50;99.90;;;;;;5085380;28;20529;-81
2022/06/26 04:44:28;;;;;;;5.13;4.05;;;17.50;99.90;;;;;;5076199;28;20067;-81
2022/06/26 04:46:54;;;;;;;3.53;2.92;;;17.50;99.90;;;;;;5077363;28;20042;-81
2022/06/26 04:49:20;;;;;;;3.17;2.58;;;17.60;99.90;;;;;;5083466;28;20045;-80
2022/06/26 04:51:45;;;;;;;4.53;3.22;;;17.70;99.90;;;;;;5080854;28;20048;-82
2022/06/26 04:54:11;;;;;;;4.30;3.35;;;17.60;99.90;;;;;;5079149;28;20049;-81
2022/06/26 04:56:38;;;;;;;2.92;2.70;;;17.60;99.90;;;;;;5066655;28;20040;-81
2022/06/26 04:59:05;;;;;;;3.88;2.72;;;17.70;99.90;;;;;;5082323;28;20050;-81
2022/06/26 05:01:31;;;;;;;3.10;2.90;;;17.70;99.90;;;;;;5100543;28;20032;-82
2022/06/26 05:03:58;;;;;;;4.43;3.13;;;17.80;99.90;;;;;;5098617;28;20070;-83
2022/06/26 05:06:23;;;;;;;3.22;2.75;;;17.80;99.90;;;;;;5067482;28;20040;-82
2022/06/26 05:08:49;;;;;;;3.83;3.40;;;17.80;99.90;;;;;;5095531;28;20044;-83
2022/06/26 05:11:14;;;;;;;3.95;3.55;;;17.90;99.90;;;;;;5099041;28;20119;-83
2022/06/26 05:13:40;;;;;;;5.13;3.80;;;18.00;99.90;;;;;;5063833;28;20106;-82
2022/06/26 05:16:06;;;;;;;5.75;3.13;;;18.00;99.90;;;;;;5071901;28;20494;-83
2022/06/26 05:18:32;;;;;;;4.50;4.03;;;18.00;99.90;;;;;;5084785;28;20044;-83
2022/06/26 05:20:58;;;;;;;5.55;5.05;;;18.10;99.90;;;;;;5080114;28;20040;-82
2022/06/26 05:23:24;;;;;;;5.50;4.35;;;18.20;99.90;;;;;;5079043;28;20040;-83
2022/06/26 05:25:53;;;;;;;3.95;3.20;;;18.30;99.90;;;;;;5084540;28;20060;-83
2022/06/26 05:28:19;;;;;;;6.80;3.60;;;18.40;99.90;;;;;;5075954;28;20035;-83
2022/06/26 05:30:45;;;;;;;4.43;3.78;;;18.50;99.90;;;;;;5086563;28;20052;-83
2022/06/26 05:33:11;;;;;;;5.43;3.08;;;18.60;99.90;;;;;;5087049;28;20044;-83
2022/06/26 05:35:37;;;;;;;6.40;3.72;;;18.60;99.90;;;;;;5084952;28;20036;-82
2022/06/26 05:38:02;;;;;;;3.60;3.13;;;18.60;99.90;;;;;;5087445;28;20051;-83
2022/06/26 05:40:28;;;;;;;5.97;3.90;;;18.70;99.90;;;;;;5105697;28;20046;-83
2022/06/26 05:42:55;;;;;;;3.75;3.33;;;18.70;99.90;;;;;;5105012;28;20047;-82
2022/06/26 05:45:21;;;;;;;5.35;4.53;;;18.80;99.90;;;;;;5094321;28;20037;-83
2022/06/26 05:47:47;;;;;;;5.15;3.72;;;18.80;99.90;;;;;;5083025;28;20045;-82
2022/06/26 05:50:12;;;;;;;4.45;3.40;;;18.80;99.90;;;;;;5091423;28;20119;-82
2022/06/26 05:52:38;;;;;;;5.80;3.65;;;18.70;99.90;;;;;;5083126;28;20044;-82
2022/06/26 05:55:04;;;;;;;5.05;4.03;;;18.70;99.90;;;;;;5078707;28;20078;-81
2022/06/26 05:57:30;;;;;;;4.82;3.85;;;18.70;99.90;;;;;;5094833;28;20040;-82
2022/06/26 05:59:56;;;;;;;4.70;3.90;;;18.80;99.90;;;;;;5102131;28;20051;-82
2022/06/26 06:02:21;;;;;;;4.68;4.15;;;18.90;99.90;;;;;;5103770;28;20039;-82
2022/06/26 06:04:47;;;;;;;7.07;4.25;;;18.90;99.90;;;;;;5085426;28;20072;-82
2022/06/26 06:07:12;;;;;;;4.53;3.88;;;18.90;99.90;;;;;;5078209;28;20425;-81
2022/06/26 06:09:38;;;;;;;5.32;4.30;;;19.10;99.90;;;;;;5086736;28;20040;-81
2022/06/26 06:12:04;;;;;;;5.00;4.47;;;19.30;99.90;;;;;;5084638;28;20523;-81
2022/06/26 06:14:30;;;;;;;6.18;5.13;;;19.50;99.90;;;;;;5083761;28;20044;-82
2022/06/26 06:16:55;;;;;;;6.28;4.30;;;19.60;99.90;;;;;;5070705;28;20509;-82
2022/06/26 06:19:22;;;;;;;4.63;3.75;;;19.60;99.90;;;;;;5089729;28;20032;-81
2022/06/26 06:21:47;;;;;;;4.30;3.90;;;19.60;99.90;;;;;;5088145;28;20099;-81
2022/06/26 06:24:13;;;;;;;6.30;5.15;;;19.60;99.90;;;;;;5073520;28;20055;-81
2022/06/26 06:26:38;;;;;;;6.25;5.55;;;19.80;99.90;;;;;;5085104;28;20039;-80
2022/06/26 06:29:04;;;;;;;6.97;4.70;;;19.80;99.90;;;;;;5086200;28;20040;-81
2022/06/26 06:31:30;;;;;;;5.72;5.22;;;19.90;99.90;;;;;;5085582;28;20044;-80
2022/06/26 06:33:55;;;;;;;6.72;5.72;;;20.00;99.90;;;;;;5085631;28;20045;-81
2022/06/26 06:36:21;;;;;;;7.68;5.82;;;20.20;99.90;;;;;;5080917;28;20115;-80
2022/06/26 06:38:47;;;;;;;7.35;5.75;;;20.20;99.90;;;;;;5083225;28;20088;-81
2022/06/26 06:41:12;;;;;;;8.13;6.80;;;20.20;99.90;;;;;;5050831;28;20041;-80
2022/06/26 06:43:38;;;;;;;9.27;7.57;;;20.20;99.90;;;;;;5070025;28;20036;-80
2022/06/26 06:46:03;;;;;;;10.07;9.07;;;20.10;99.90;;;;;;5080873;28;20046;-80
2022/06/26 06:48:29;;;;;;;8.82;7.93;;;20.10;99.90;;;;;;5089409;28;20066;-80
2022/06/26 06:50:55;;;;;;;10.05;8.63;;;20.10;99.90;;;;;;5079451;28;20046;-80
2022/06/26 06:53:21;;;;;;;9.30;7.63;;;20.20;99.90;;;;;;5094499;28;20057;-80
2022/06/26 06:55:47;;;;;;;8.98;8.07;;;20.20;99.90;;;;;;5089285;28;20156;-80
2022/06/26 06:58:12;;;;;;;9.98;8.80;;;20.30;99.90;;;;;;5084586;28;20032;-81
2022/06/26 07:00:38;;;;;;;9.65;8.73;;;20.20;99.90;;;;;;5065202;28;20085;-80
2022/06/26 07:03:05;;;;;;;9.15;7.22;;;20.20;99.90;;;;;;5078134;28;20096;-80
2022/06/26 07:05:31;;;;;;;8.43;7.63;;;20.20;99.90;;;;;;5084650;28;20059;-80
2022/06/26 07:07:58;;;;;;;7.25;6.45;;;20.40;99.90;;;;;;5066237;28;20045;-80
2022/06/26 07:10:23;;;;;;;7.03;6.20;;;20.60;99.90;;;;;;5068714;28;20044;-80
2022/06/26 07:12:58;;;;;;;8.10;7.30;;;20.80;99.90;;;;;;5067877;28;20105;-81
2022/06/26 07:15:24;;;;;;;6.65;4.70;;;20.80;99.90;;;;;;5087084;28;20036;-80
2022/06/26 07:17:50;;;;;;;6.75;5.72;;;20.90;99.90;;;;;;5084027;28;20047;-80
2022/06/26 07:20:16;;;;;;;7.53;5.82;;;20.90;99.90;;;;;;5059706;28;20036;-80
2022/06/26 07:22:41;;;;;;;7.88;6.13;;;21.00;99.90;;;;;;5078068;28;20391;-80
2022/06/26 07:25:08;;;;;;;7.40;6.78;;;20.90;99.90;;;;;;5077825;28;20040;-79
2022/06/26 07:27:33;;;;;;;8.35;7.32;;;20.90;99.90;;;;;;5080498;28;20071;-79
2022/06/26 07:29:59;;;;;;;9.80;8.80;;;21.10;99.90;;;;;;5068586;28;20091;-79
2022/06/26 07:32:25;;;;;;;10.65;9.55;;;21.10;99.90;;;;;;5101022;28;20040;-80
2022/06/26 07:34:50;;;;;;;10.70;9.48;;;21.20;99.90;;;;;;5073146;28;20119;-79
2022/06/26 07:37:16;;;;;;;11.43;10.23;;;21.30;99.90;;;;;;5085341;28;20044;-79
2022/06/26 07:39:41;;;;;;;10.85;9.60;;;21.40;99.90;;;;;;5088855;28;20036;-80
2022/06/26 07:42:07;;;;;;;13.20;11.90;;;21.40;99.90;;;;;;5070112;28;20085;-79
2022/06/26 07:44:33;;;;;;;13.88;11.18;;;21.50;99.90;;;;;;5069462;28;20437;-79
2022/06/26 07:46:59;;;;;;;12.40;11.13;;;21.40;99.90;;;;;;5070780;28;20131;-80
2022/06/26 07:49:24;;;;;;;12.68;11.05;;;21.30;99.90;;;;;;5087852;28;20105;-79
2022/06/26 07:51:51;;;;;;;12.52;10.95;;;21.20;99.90;;;;;;5076282;28;20102;-80
2022/06/26 07:54:17;;;;;;;11.10;9.90;;;21.40;99.90;;;;;;5077751;28;20040;-80
2022/06/26 07:56:43;;;;;;;13.10;11.82;;;21.80;99.90;;;;;;5094430;28;20114;-80
2022/06/26 07:59:09;;;;;;;11.68;10.48;;;22.00;99.90;;;;;;5074161;28;20499;-80
2022/06/26 08:01:35;;;;;;;10.50;9.50;;;22.30;99.90;;;;;;5078076;28;20036;-80
2022/06/26 08:04:01;;;;;;;9.82;8.82;;;22.90;99.90;;;;;;5075870;28;20115;-79
2022/06/26 08:06:28;;;;;;;11.93;10.82;;;23.40;99.90;;;;;;5075834;28;20498;-80
2022/06/26 08:08:53;;;;;;;10.13;9.23;;;23.60;99.90;;;;;;5076842;28;20052;-80
2022/06/26 08:11:19;;;;;;;10.25;9.43;;;23.60;99.90;;;;;;5075029;28;20089;-79
2022/06/26 08:13:45;;;;;;;9.48;8.70;;;23.70;99.90;;;;;;5060464;28;20111;-80
2022/06/26 08:16:11;;;;;;;8.88;8.07;;;23.90;99.90;;;;;;5075387;28;20044;-79
2022/06/26 08:18:37;;;;;;;11.30;10.25;;;23.90;99.90;;;;;;5076400;28;20051;-80
2022/06/26 08:23:47;;;;;;;7.55;6.85;;;23.70;99.90;;;;;;5074144;28;20075;-80
2022/06/26 08:26:13;;;;;;;7.47;6.72;;;23.40;99.90;;;;;;5074707;28;20045;-80
2022/06/26 08:28:38;;;;;;;9.13;8.18;;;23.30;99.90;;;;;;5072799;28;20065;-79
2022/06/26 08:31:04;;;;;;;7.25;6.70;;;23.20;99.90;;;;;;5053934;28;20493;-80
2022/06/26 08:33:29;;;;;;;6.53;5.97;;;22.90;99.90;;;;;;5096918;28;20490;-80
2022/06/26 08:35:55;;;;;;;7.78;6.95;;;22.50;99.90;;;;;;5079826;28;20043;-79
2022/06/26 08:38:20;;;;;;;6.00;5.45;;;22.20;99.90;;;;;;5085536;28;20087;-79
2022/06/26 08:40:46;;;;;;;5.57;5.07;;;22.20;99.90;;;;;;5062249;28;20044;-79
2022/06/26 08:43:13;;;;;;;6.18;5.63;;;22.40;99.90;;;;;;5098250;28;20061;-79
2022/06/26 08:45:41;;;;;;;5.65;5.25;;;22.90;99.90;;;;;;5081981;28;20104;-80
2022/06/26 08:48:09;;;;;;;5.25;4.75;;;23.30;99.90;;;;;;5082436;28;20048;-81
2022/06/26 08:50:34;;;;;;;6.70;6.10;;;23.70;99.90;;;;;;5082864;28;20055;-79
2022/06/26 08:53:01;;;;;;;5.40;4.90;;;24.10;99.90;;;;;;5078661;28;20044;-80
2022/06/26 08:55:28;;;;;;;4.95;4.50;;;24.50;99.90;;;;;;5063267;28;20044;-79
2022/06/26 08:57:54;;;;;;;5.30;4.10;;;24.80;99.90;;;;;;5062084;28;20044;-81
2022/06/26 09:00:19;;;;;;;4.75;3.63;;;25.00;99.90;;;;;;5059715;28;20043;-80
2022/06/26 09:02:46;;;;;;;3.75;2.83;;;24.90;99.90;;;;;;5061579;28;20259;-81
2022/06/26 09:05:12;;;;;;;2.60;2.40;;;25.00;99.90;;;;;;5062883;28;20040;-80
2022/06/26 09:07:49;;;;;;;3.55;2.92;;;25.10;99.90;;;;;;5059930;28;20055;-79
2022/06/26 09:10:17;;;;;;;3.30;2.28;;;24.80;99.90;;;;;;5060110;28;20136;-80
2022/06/26 09:12:43;;;;;;;5.10;3.17;;;24.20;99.90;;;;;;5059117;28;20130;-80
2022/06/26 09:15:17;;;;;;;3.90;3.60;;;24.00;99.90;;;;;;5076912;28;20093;-80
2022/06/26 09:18:03;;;;;;;5.15;2.22;;;23.90;99.90;;;;;;5059293;28;20110;-80
2022/06/26 09:20:31;;;;;;;2.63;2.28;;;23.70;99.90;;;;;;5057032;28;20037;-80
2022/06/26 09:22:59;;;;;;;3.25;1.75;;;23.60;99.90;;;;;;5056445;28;20040;-79
2022/06/26 09:25:45;;;;;;;3.33;1.70;;;23.40;99.90;;;;;;5055757;28;20380;-80
2022/06/26 09:28:19;;;;;;;2.58;1.77;;;23.30;99.90;;;;;;5064538;28;20041;-80
2022/06/26 09:30:52;;;;;;;1.60;1.50;;;23.30;99.90;;;;;;5058828;28;20073;-80
2022/06/26 09:33:23;;;;;;;2.22;1.38;;;23.40;99.90;;;;;;5076304;28;20046;-80
2022/06/26 09:35:49;;;;;;;3.53;1.92;;;23.30;99.90;;;;;;5076261;28;20051;-79
2022/06/26 09:38:23;;;;;;;3.70;1.30;;;23.50;99.90;;;;;;5076389;28;20044;-80
2022/06/26 09:40:52;;;;;;;2.95;2.05;;;24.10;99.90;;;;;;5060382;28;20093;-79
2022/06/26 09:43:31;;;;;;;2.42;1.23;;;24.30;99.90;;;;;;5060676;28;20032;-80
2022/06/26 09:45:59;;;;;;;4.25;1.30;;;24.50;99.90;;;;;;5068489;28;20048;-79
2022/06/26 09:48:26;;;;;;;1.85;1.33;;;24.90;99.90;;;;;;5058467;28;20091;-80
2022/06/26 09:50:53;;;;;;;2.85;2.03;;;25.40;99.40;;;;;;5081484;28;20459;-79
2022/06/26 09:53:20;;;;;;;2.10;1.02;;;25.60;98.10;;;;;;5081092;28;20417;-79
2022/06/26 09:55:47;;;;;;;2.63;1.45;;;25.80;95.60;;;;;;5063540;28;20036;-80
2022/06/26 09:58:13;;;;;;;2.72;1.20;;;26.10;95.30;;;;;;5067776;28;20068;-80
2022/06/26 10:00:40;;;;;;;1.92;0.90;;;26.50;94.60;;;;;;5069062;28;20072;-80
2022/06/26 10:08:43;;;;;;;2.15;1.27;;;27.50;92.00;;;;;;5088886;28;20067;-80
2022/06/26 10:11:09;;;;;;;2.35;1.85;;;27.20;90.50;;;;;;5089390;28;20249;-80
2022/06/26 10:13:39;;;;;;;2.60;1.73;;;26.60;91.50;;;;;;5088617;28;20119;-80
2022/06/26 10:16:18;;;;;;;2.58;1.30;;;25.90;91.40;;;;;;5088776;28;20040;-81
2022/06/26 10:19:21;;;;;;;1.45;0.82;;;25.60;93.10;;;;;;5082620;28;20075;-80
2022/06/26 10:21:47;;;;;;;0.80;0.40;;;25.90;90.20;;;;;;5064644;28;20033;-81
2022/06/26 10:24:14;;;;;;;0.65;0.20;;;26.00;90.10;;;;;;5063752;28;20052;-80
2022/06/26 10:26:51;;;;;;;1.92;0.30;;;25.80;88.30;;;;;;5063759;28;20085;-80
2022/06/26 10:29:16;;;;;;;1.55;0.70;;;25.90;86.50;;;;;;5045144;28;20135;-79
2022/06/26 10:31:42;;;;;;;2.83;0.30;;;26.00;87.70;;;;;;5062176;28;20416;-81
2022/06/26 10:34:15;;;;;;;1.50;0.70;;;25.90;88.10;;;;;;5063359;28;20121;-79
2022/06/26 10:36:40;;;;;;;3.22;0.50;;;25.80;84.20;;;;;;5064451;28;20104;-81
2022/06/26 10:39:06;;;;;;;1.90;0.30;;;25.80;85.30;;;;;;5083925;28;20060;-81
2022/06/26 10:44:49;;;;;;;1.92;0.30;;;25.90;81.70;;;;;;5084490;28;20439;-81
2022/06/26 10:47:16;;;;;;;1.13;0.30;;;26.10;87.50;;;;;;5086776;28;20040;-80
2022/06/26 10:49:46;;;;;;;1.30;0.32;;;26.20;89.80;;;;;;5086994;28;20051;-81
2022/06/26 10:52:26;;;;;;;3.13;0.98;;;26.40;86.50;;;;;;5085952;28;20047;-80
2022/06/26 10:54:53;;;;;;;1.75;0.40;;;26.40;86.80;;;;;;5050878;28;20043;-80
2022/06/26 10:57:31;;;;;;;0.85;0.32;;;26.40;85.50;;;;;;5065459;28;20047;-80
2022/06/26 10:59:58;;;;;;;1.48;0.38;;;26.60;80.30;;;;;;5065988;28;20048;-80
2022/06/26 11:02:25;;;;;;;1.48;0.32;;;26.80;83.50;;;;;;5061318;28;20032;-81
2022/06/26 11:04:51;;;;;;;0.93;0.50;;;26.90;82.70;;;;;;5046381;28;20058;-81
2022/06/26 11:07:18;;;;;;;1.00;0.60;;;26.80;83.80;;;;;;5060402;28;20073;-79
2022/06/26 11:09:45;;;;;;;2.03;0.57;;;26.40;78.90;;;;;;5078396;28;20048;-82
2022/06/26 11:12:12;;;;;;;2.60;0.38;;;26.40;82.80;;;;;;5075581;28;20047;-80
2022/06/26 11:14:37;;;;;;;5.32;0.40;;;26.40;86.10;;;;;;5060825;28;20048;-81
2022/06/26 11:17:05;;;;;;;2.60;0.60;;;26.50;84.70;;;;;;5061337;28;20186;-79
2022/06/26 11:20:46;;;;;;;1.65;0.50;;;26.60;83.20;;;;;;5060730;28;20120;-80
2022/06/26 11:22:18;;;;;;;1.35;1.02;;;26.80;84.90;;;;;;5060179;28;20052;-81
2022/06/26 11:24:54;;;;;;;2.47;0.50;;;27.00;86.00;;;;;;5060672;28;20388;-80
2022/06/26 11:27:25;;;;;;;0.75;0.40;;;27.20;83.00;;;;;;5062894;28;20032;-81
2022/06/26 11:29:54;;;;;;;1.23;0.30;;;27.30;82.20;;;;;;5064889;28;20410;-81
2022/06/26 11:32:24;;;;;;;2.67;0.60;;;27.40;83.10;;;;;;5079875;28;20099;-81
2022/06/26 11:34:56;;;;;;;1.23;0.40;;;27.50;82.40;;;;;;5084079;28;20036;-81
2022/06/26 11:37:32;;;;;;;1.08;0.68;;;27.70;81.10;;;;;;5086127;28;20068;-81
2022/06/26 11:39:57;;;;;;;2.05;0.30;;;27.90;84.20;;;;;;5104436;28;20174;-81
2022/06/26 11:42:24;;;;;;;1.55;0.38;;;28.00;80.20;;;;;;5082897;28;20086;-81
2022/06/26 11:44:54;;;;;;;0.70;0.40;;;28.20;77.30;;;;;;5081700;28;20032;-81
2022/06/26 11:47:21;;;;;;;1.30;0.50;;;28.40;71.50;;;;;;5047198;28;20090;-81
2022/06/26 11:49:47;;;;;;;1.23;0.50;;;28.70;70.60;;;;;;5062374;28;20122;-81
2022/06/26 11:52:13;;;;;;;2.22;0.50;;;28.90;68.40;;;;;;5064665;28;20064;-80
2022/06/26 11:54:39;;;;;;;3.67;0.70;;;28.60;68.80;;;;;;5048088;28;20055;-81
2022/06/26 11:57:09;;;;;;;2.20;0.82;;;28.00;73.10;;;;;;5062333;28;20048;-81
2022/06/26 11:59:44;;;;;;;1.30;0.35;;;28.00;68.20;;;;;;5061731;28;20091;-81
2022/06/26 12:02:23;;;;;;;0.98;0.32;;;28.20;70.80;;;;;;5061292;28;20032;-81
2022/06/26 12:05:02;;;;;;;1.90;0.52;;;28.70;70.50;;;;;;5060014;28;20045;-81
2022/06/26 12:07:40;;;;;;;1.63;0.30;;;29.00;67.80;;;;;;5062516;28;20059;-81
2022/06/26 12:10:06;;;;;;;2.42;0.32;;;28.80;66.00;;;;;;5062305;28;20049;-82
2022/06/26 12:12:32;;;;;;;1.58;0.45;;;28.70;64.10;;;;;;5078104;28;20036;-81
2022/06/26 12:14:57;;;;;;;1.88;0.40;;;28.60;66.10;;;;;;5060779;28;20071;-82
2022/06/26 12:17:25;;;;;;;1.23;0.40;;;28.80;67.30;;;;;;5061476;28;20044;-82
2022/06/26 12:19:52;;;;;;;2.72;0.70;;;28.80;65.50;;;;;;5082207;28;20382;-81
2022/06/26 12:22:28;;;;;;;2.33;0.60;;;29.00;64.00;;;;;;5081102;28;20039;-80
2022/06/26 12:24:55;;;;;;;1.45;0.40;;;29.20;63.40;;;;;;5081278;28;20064;-81
2022/06/26 12:27:32;;;;;;;0.80;0.40;;;28.90;64.40;;;;;;5081627;28;20565;-82
2022/06/26 12:29:57;;;;;;;1.35;1.00;;;28.90;64.50;;;;;;5081930;28;20055;-81
2022/06/26 12:32:23;;;;;;;0.93;0.30;;;28.70;63.00;;;;;;5098614;28;20036;-81
2022/06/26 12:34:48;;;;;;;1.58;0.50;;;28.60;64.40;;;;;;5080652;28;20040;-82
2022/06/26 12:37:14;;;;;;;2.15;0.40;;;28.60;65.40;;;;;;5095374;28;20048;-81
2022/06/26 12:39:39;;;;;;;2.92;0.57;;;28.50;66.10;;;;;;5061507;28;20040;-81
2022/06/26 12:42:05;;;;;;;2.38;0.50;;;28.30;65.80;;;;;;5044108;28;20394;-81
2022/06/26 12:44:31;;;;;;;3.33;0.52;;;28.10;68.10;;;;;;5061451;28;20112;-81
2022/06/26 12:46:56;;;;;;;2.08;0.65;;;28.00;65.50;;;;;;5061687;28;20103;-82
2022/06/26 12:49:22;;;;;;;1.70;0.60;;;27.90;68.40;;;;;;5061699;28;20115;-81
2022/06/26 12:51:47;;;;;;;1.08;0.40;;;27.70;71.00;;;;;;5060995;28;20052;-81
2022/06/26 12:54:13;;;;;;;1.83;0.32;;;27.50;74.70;;;;;;5080668;28;20039;-81
2022/06/26 12:56:39;;;;;;;1.55;0.80;;;27.40;74.70;;;;;;5080253;28;20070;-81